Time;durP1;ratioP1;P1;durP2;ratioP2;P2;SDS_P1;SDS_P2;PMS_P1;PMS_P2;Temp;Humidity;BMP_temperature;BMP_pressure;BME280_temperature;BME280_humidity;BME280_pressure;Samples;Min_cycle;Max_cycle;Signal;HPM_P1;HPM_P2
2024/01/21 00:00:24;;;;;;;;;;;17.40;48.60;;;;;;7323805;19;9417;-60
2024/01/21 00:02:54;;;;;;;;;;;17.40;48.70;;;;;;7323890;19;9165;-60
2024/01/21 00:05:24;;;;;;;;;;;17.30;48.80;;;;;;7323678;19;9143;-60
2024/01/21 00:07:54;;;;;;;;;;;17.30;48.80;;;;;;7323129;19;9351;-60
2024/01/21 00:10:24;;;;;;;;;;;17.20;48.70;;;;;;7322077;19;9277;-60
2024/01/21 00:12:56;;;;;;;;;;;17.20;48.80;;;;;;7321877;19;9023;-60
2024/01/21 00:15:26;;;;;;;;;;;17.10;48.90;;;;;;7323599;19;10075;-60
2024/01/21 00:17:56;;;;;;;;;;;17.10;49.00;;;;;;7321781;19;9999;-60
2024/01/21 00:20:30;;;;;;;;;;;17.00;49.10;;;;;;7323278;19;9181;-60
2024/01/21 00:23:00;;;;;;;;;;;17.00;49.10;;;;;;7321874;19;9295;-60
2024/01/21 00:25:30;;;;;;;;;;;16.90;49.40;;;;;;7323201;19;9244;-60
2024/01/21 00:28:02;;;;;;;;;;;16.90;49.70;;;;;;7321418;19;9268;-60
2024/01/21 00:30:32;;;;;;;;;;;16.90;49.30;;;;;;7321842;19;9263;-60
2024/01/21 00:33:02;;;;;;;;;;;16.90;49.30;;;;;;7322097;19;9189;-60
2024/01/21 00:35:31;;;;;;;;;;;16.90;49.40;;;;;;7322718;19;9193;-60
2024/01/21 00:38:02;;;;;;;;;;;16.90;49.20;;;;;;7329317;19;10610;-60
2024/01/21 00:40:32;;;;;;;;;;;16.90;49.20;;;;;;7327910;19;9300;-60
2024/01/21 00:43:04;;;;;;;;;;;17.00;49.20;;;;;;7329187;19;9099;-60
2024/01/21 00:45:34;;;;;;;;;;;17.00;49.30;;;;;;7327178;19;9031;-60
2024/01/21 00:48:04;;;;;;;;;;;17.10;49.30;;;;;;7329139;19;9554;-60
2024/01/21 00:50:34;;;;;;;;;;;17.10;49.10;;;;;;7328646;19;9143;-60
2024/01/21 00:53:04;;;;;;;;;;;17.10;49.10;;;;;;7328476;19;9088;-60
2024/01/21 00:55:33;;;;;;;;;;;17.20;49.10;;;;;;7328561;19;9157;-60
2024/01/21 00:58:06;;;;;;;;;;;17.20;49.20;;;;;;7328014;19;9450;-60
2024/01/21 01:00:36;;;;;;;;;;;17.20;49.30;;;;;;7328790;19;9281;-60
2024/01/21 01:03:06;;;;;;;;;;;17.30;49.40;;;;;;7327710;19;9297;-60
2024/01/21 01:05:36;;;;;;;;;;;17.30;49.40;;;;;;7327234;19;9335;-60
2024/01/21 01:08:06;;;;;;;;;;;17.30;49.50;;;;;;7328226;19;9208;-60
2024/01/21 01:10:36;;;;;;;;;;;17.40;49.40;;;;;;7328743;19;9253;-60
2024/01/21 01:13:09;;;;;;;;;;;17.40;49.40;;;;;;7328144;19;9232;-60
2024/01/21 01:15:39;;;;;;;;;;;17.50;49.30;;;;;;7328332;19;9097;-60
2024/01/21 01:18:09;;;;;;;;;;;17.50;49.20;;;;;;7327623;19;9015;-60
2024/01/21 01:20:38;;;;;;;;;;;17.60;49.30;;;;;;7328552;19;9295;-59
2024/01/21 01:23:08;;;;;;;;;;;17.60;49.30;;;;;;7328547;19;9180;-60
2024/01/21 01:25:38;;;;;;;;;;;17.60;49.20;;;;;;7327695;19;9213;-60
2024/01/21 01:28:11;;;;;;;;;;;17.70;49.20;;;;;;7327642;19;9209;-61
2024/01/21 01:30:40;;;;;;;;;;;17.70;49.20;;;;;;7328385;19;9257;-60
2024/01/21 01:33:10;;;;;;;;;;;17.70;49.20;;;;;;7328419;19;9218;-60
2024/01/21 01:35:40;;;;;;;;;;;17.70;49.10;;;;;;7326285;19;9256;-60
2024/01/21 01:38:12;;;;;;;;;;;17.70;49.10;;;;;;7327521;19;9241;-60
2024/01/21 01:40:42;;;;;;;;;;;17.70;49.10;;;;;;7326609;19;9273;-60
2024/01/21 01:43:14;;;;;;;;;;;17.70;49.00;;;;;;7327859;19;9304;-60
2024/01/21 01:45:44;;;;;;;;;;;17.70;48.90;;;;;;7327579;19;9239;-60
2024/01/21 01:48:14;;;;;;;;;;;17.70;48.80;;;;;;7325990;19;8948;-60
2024/01/21 01:50:43;;;;;;;;;;;17.70;48.70;;;;;;7326877;19;9421;-60
2024/01/21 01:53:13;;;;;;;;;;;17.70;48.80;;;;;;7326760;19;9221;-60
2024/01/21 01:55:45;;;;;;;;;;;17.60;48.40;;;;;;7327471;19;9149;-60
2024/01/21 01:58:18;;;;;;;;;;;17.60;48.60;;;;;;7327094;19;9202;-60
2024/01/21 02:00:50;;;;;;;;;;;17.50;48.40;;;;;;7327480;19;9343;-59
2024/01/21 02:03:20;;;;;;;;;;;17.50;48.50;;;;;;7325660;19;9153;-60
2024/01/21 02:05:50;;;;;;;;;;;17.50;48.60;;;;;;7327267;19;9339;-60
2024/01/21 02:08:20;;;;;;;;;;;17.40;48.60;;;;;;7326127;19;9358;-60
2024/01/21 02:10:49;;;;;;;;;;;17.40;48.70;;;;;;7327116;19;9176;-61
2024/01/21 02:13:22;;;;;;;;;;;17.30;48.60;;;;;;7326190;19;9297;-60
2024/01/21 02:15:52;;;;;;;;;;;17.30;48.70;;;;;;7325236;19;9177;-60
2024/01/21 02:18:22;;;;;;;;;;;17.20;48.80;;;;;;7325360;19;9170;-60
2024/01/21 02:20:52;;;;;;;;;;;17.20;48.90;;;;;;7326115;19;9213;-60
2024/01/21 02:23:24;;;;;;;;;;;17.10;49.10;;;;;;7326195;19;9223;-60
2024/01/21 02:25:54;;;;;;;;;;;17.10;48.80;;;;;;7326389;19;9197;-60
2024/01/21 02:28:23;;;;;;;;;;;17.00;49.00;;;;;;7322926;19;9190;-61
2024/01/21 02:30:53;;;;;;;;;;;17.00;49.10;;;;;;7325885;19;9210;-60
2024/01/21 02:33:23;;;;;;;;;;;17.00;49.10;;;;;;7325203;19;9376;-60
2024/01/21 02:35:53;;;;;;;;;;;16.90;49.10;;;;;;7324883;19;9726;-60
2024/01/21 02:38:25;;;;;;;;;;;17.00;49.10;;;;;;7325663;19;9341;-60
2024/01/21 02:40:55;;;;;;;;;;;17.00;49.10;;;;;;7324754;19;9221;-61
2024/01/21 02:43:25;;;;;;;;;;;17.00;49.00;;;;;;7325314;19;9174;-60
2024/01/21 02:45:54;;;;;;;;;;;17.00;48.90;;;;;;7324581;19;9778;-60
2024/01/21 02:48:24;;;;;;;;;;;17.00;48.90;;;;;;7325187;19;9261;-60
2024/01/21 02:50:54;;;;;;;;;;;17.00;48.90;;;;;;7325406;19;9238;-60
2024/01/21 02:53:26;;;;;;;;;;;17.00;49.00;;;;;;7326108;19;9022;-60
2024/01/21 02:55:56;;;;;;;;;;;17.10;49.00;;;;;;7325625;19;9215;-60
2024/01/21 02:58:26;;;;;;;;;;;17.20;49.10;;;;;;7324194;19;9340;-60
2024/01/21 03:00:55;;;;;;;;;;;17.20;49.40;;;;;;7323640;19;9225;-60
2024/01/21 03:03:25;;;;;;;;;;;17.20;49.30;;;;;;7324501;19;9328;-60
2024/01/21 03:05:55;;;;;;;;;;;17.30;49.30;;;;;;7325327;19;9376;-61
2024/01/21 03:08:27;;;;;;;;;;;17.30;49.40;;;;;;7325991;19;9165;-60
2024/01/21 03:10:57;;;;;;;;;;;17.40;49.20;;;;;;7323636;19;9358;-60
2024/01/21 03:13:27;;;;;;;;;;;17.40;49.10;;;;;;7325203;19;9288;-60
2024/01/21 03:15:58;;;;;;;;;;;17.50;49.20;;;;;;7323314;19;9162;-60
2024/01/21 03:18:28;;;;;;;;;;;17.50;49.00;;;;;;7325014;19;9374;-61
2024/01/21 03:20:58;;;;;;;;;;;17.60;49.10;;;;;;7324388;19;9234;-60
2024/01/21 03:23:30;;;;;;;;;;;17.60;49.10;;;;;;7325050;19;8990;-60
2024/01/21 03:26:00;;;;;;;;;;;17.60;49.10;;;;;;7325111;19;9299;-60
2024/01/21 03:28:30;;;;;;;;;;;17.70;49.00;;;;;;7324938;19;9290;-61
2024/01/21 03:30:59;;;;;;;;;;;17.70;49.00;;;;;;7324435;19;9589;-60
2024/01/21 03:33:29;;;;;;;;;;;17.70;48.90;;;;;;7324470;19;9575;-60
2024/01/21 03:35:59;;;;;;;;;;;17.70;48.80;;;;;;7324324;19;9206;-60
2024/01/21 03:38:32;;;;;;;;;;;17.70;48.80;;;;;;7324126;19;9244;-60
2024/01/21 03:41:01;;;;;;;;;;;17.70;48.80;;;;;;7325037;19;9024;-60
2024/01/21 03:43:31;;;;;;;;;;;17.70;49.10;;;;;;7324169;19;9229;-60
2024/01/21 03:46:01;;;;;;;;;;;17.70;48.50;;;;;;7323362;19;9369;-61
2024/01/21 03:48:32;;;;;;;;;;;17.70;48.40;;;;;;7323239;19;9219;-61
2024/01/21 03:51:02;;;;;;;;;;;17.70;49.10;;;;;;7324458;19;9171;-60
2024/01/21 03:53:36;;;;;;;;;;;17.70;48.30;;;;;;7322294;19;9241;-60
2024/01/21 03:56:07;;;;;;;;;;;17.60;48.10;;;;;;7323759;19;9242;-60
2024/01/21 03:58:37;;;;;;;;;;;17.60;48.10;;;;;;7324621;19;9266;-60
2024/01/21 04:01:07;;;;;;;;;;;17.50;48.20;;;;;;7323575;19;9241;-60
2024/01/21 04:03:36;;;;;;;;;;;17.50;48.20;;;;;;7323319;19;9066;-60
2024/01/21 04:06:07;;;;;;;;;;;17.50;48.20;;;;;;7322992;19;9268;-60
2024/01/21 04:08:39;;;;;;;;;;;17.40;48.30;;;;;;7323183;19;8948;-60
2024/01/21 04:11:09;;;;;;;;;;;17.30;48.20;;;;;;7326194;19;10074;-60
2024/01/21 04:13:40;;;;;;;;;;;17.30;48.30;;;;;;7329853;19;9245;-59
2024/01/21 04:16:10;;;;;;;;;;;17.20;48.40;;;;;;7329844;19;9174;-58
2024/01/21 04:18:40;;;;;;;;;;;17.20;48.50;;;;;;7329277;19;9292;-58
2024/01/21 04:21:10;;;;;;;;;;;17.10;48.50;;;;;;7330259;19;9248;-59
2024/01/21 04:23:43;;;;;;;;;;;17.10;48.70;;;;;;7329057;19;9372;-59
2024/01/21 04:26:12;;;;;;;;;;;17.00;48.80;;;;;;7329757;19;9225;-58
2024/01/21 04:28:42;;;;;;;;;;;17.00;48.80;;;;;;7329029;19;9292;-58
2024/01/21 04:31:13;;;;;;;;;;;17.00;48.80;;;;;;7329491;19;9702;-58
2024/01/21 04:33:42;;;;;;;;;;;16.90;48.80;;;;;;7327189;19;9245;-58
2024/01/21 04:36:19;;;;;;;;;;;17.00;48.80;;;;;;7329099;19;9238;-58
2024/01/21 04:38:51;;;;;;;;;;;16.90;48.80;;;;;;7327994;19;9023;-58
2024/01/21 04:41:21;;;;;;;;;;;17.00;48.90;;;;;;7329229;19;9352;-58
2024/01/21 04:43:51;;;;;;;;;;;17.00;48.80;;;;;;7328196;19;9230;-58
2024/01/21 04:46:21;;;;;;;;;;;17.00;48.80;;;;;;7328921;19;9118;-59
2024/01/21 04:48:51;;;;;;;;;;;17.00;48.80;;;;;;7328821;19;9242;-58
2024/01/21 04:51:21;;;;;;;;;;;17.00;49.00;;;;;;7329087;19;9170;-58
2024/01/21 04:53:53;;;;;;;;;;;17.10;49.00;;;;;;7328626;19;9174;-58
2024/01/21 04:56:23;;;;;;;;;;;17.10;49.10;;;;;;7328181;19;9177;-58
2024/01/21 04:58:53;;;;;;;;;;;17.20;49.10;;;;;;7327189;19;9276;-58
2024/01/21 05:01:26;;;;;;;;;;;17.20;49.00;;;;;;7328293;19;9189;-58
2024/01/21 05:03:56;;;;;;;;;;;17.30;49.00;;;;;;7328844;19;9241;-58
2024/01/21 05:06:26;;;;;;;;;;;17.30;49.10;;;;;;7327739;19;9233;-58
2024/01/21 05:08:58;;;;;;;;;;;17.40;48.90;;;;;;7328708;19;9193;-60
2024/01/21 05:11:29;;;;;;;;;;;17.40;48.80;;;;;;7326865;19;9161;-60
2024/01/21 05:13:59;;;;;;;;;;;17.50;49.00;;;;;;7328290;19;9289;-60
2024/01/21 05:16:29;;;;;;;;;;;17.50;48.80;;;;;;7328139;19;9236;-60
2024/01/21 05:18:59;;;;;;;;;;;17.60;48.90;;;;;;7327012;19;9249;-60
2024/01/21 05:21:28;;;;;;;;;;;17.60;48.70;;;;;;7328442;19;9377;-60
2024/01/21 05:24:01;;;;;;;;;;;17.70;48.80;;;;;;7326864;19;9265;-60
2024/01/21 05:26:30;;;;;;;;;;;17.70;48.60;;;;;;7328026;19;10098;-60
2024/01/21 05:29:01;;;;;;;;;;;17.70;49.30;;;;;;7327912;19;9023;-60
2024/01/21 05:31:33;;;;;;;;;;;17.70;48.60;;;;;;7327424;19;9173;-60
2024/01/21 05:34:03;;;;;;;;;;;17.70;48.70;;;;;;7327246;19;9023;-60
2024/01/21 05:36:32;;;;;;;;;;;17.80;48.60;;;;;;7327631;19;9274;-60
2024/01/21 05:39:05;;;;;;;;;;;17.80;48.50;;;;;;7327058;19;9031;-60
2024/01/21 05:41:35;;;;;;;;;;;17.80;48.30;;;;;;7327136;19;9251;-60
2024/01/21 05:44:05;;;;;;;;;;;17.80;48.30;;;;;;7328349;19;9171;-60
2024/01/21 05:46:35;;;;;;;;;;;17.80;48.10;;;;;;7327077;19;9019;-59
2024/01/21 05:49:05;;;;;;;;;;;17.70;47.90;;;;;;7327128;19;9997;-60
2024/01/21 05:51:35;;;;;;;;;;;17.70;48.00;;;;;;7326909;19;9314;-60
2024/01/21 05:54:07;;;;;;;;;;;17.70;47.80;;;;;;7327576;19;9248;-60
2024/01/21 05:56:37;;;;;;;;;;;17.60;47.70;;;;;;7326660;19;9863;-60
2024/01/21 05:59:06;;;;;;;;;;;17.60;47.70;;;;;;7327705;19;9347;-60
2024/01/21 06:01:36;;;;;;;;;;;17.50;47.70;;;;;;7326746;19;9209;-60
2024/01/21 06:04:06;;;;;;;;;;;17.50;47.70;;;;;;7326138;19;9345;-60
2024/01/21 06:06:36;;;;;;;;;;;17.40;47.70;;;;;;7326478;19;9265;-60
2024/01/21 06:09:11;;;;;;;;;;;17.40;47.70;;;;;;7326585;19;9138;-60
2024/01/21 06:11:41;;;;;;;;;;;17.40;47.80;;;;;;7327426;19;9170;-60
2024/01/21 06:14:11;;;;;;;;;;;17.30;47.70;;;;;;7326475;19;9240;-60
2024/01/21 06:16:41;;;;;;;;;;;17.30;47.80;;;;;;7326473;19;9278;-60
2024/01/21 06:19:10;;;;;;;;;;;17.20;47.80;;;;;;7326828;19;9154;-60
2024/01/21 06:21:44;;;;;;;;;;;17.10;48.00;;;;;;7327698;19;10074;-60
2024/01/21 06:24:17;;;;;;;;;;;17.10;48.00;;;;;;7325933;19;9282;-60
2024/01/21 06:26:50;;;;;;;;;;;17.10;48.20;;;;;;7326739;19;9233;-60
2024/01/21 06:29:20;;;;;;;;;;;17.00;48.10;;;;;;7325578;19;9019;-60
2024/01/21 06:31:49;;;;;;;;;;;17.00;48.30;;;;;;7326627;19;9208;-60
2024/01/21 06:34:19;;;;;;;;;;;17.00;48.30;;;;;;7326131;19;9285;-60
2024/01/21 06:36:49;;;;;;;;;;;16.90;48.20;;;;;;7324996;19;9201;-60
2024/01/21 06:39:21;;;;;;;;;;;16.90;48.00;;;;;;7325659;19;9217;-60
2024/01/21 06:41:51;;;;;;;;;;;16.90;48.00;;;;;;7325113;19;9477;-60
2024/01/21 06:44:21;;;;;;;;;;;17.00;48.00;;;;;;7326826;19;9248;-60
2024/01/21 06:46:51;;;;;;;;;;;17.00;48.00;;;;;;7325670;19;9216;-60
2024/01/21 06:49:21;;;;;;;;;;;17.00;48.30;;;;;;7325839;19;9222;-60
2024/01/21 06:51:54;;;;;;;;;;;17.10;48.60;;;;;;7323998;19;9264;-60
2024/01/21 06:54:25;;;;;;;;;;;17.10;48.60;;;;;;7326159;19;9217;-60
2024/01/21 06:56:54;;;;;;;;;;;17.20;48.20;;;;;;7325704;19;9169;-60
2024/01/21 06:59:23;;;;;;;;;;;17.20;47.80;;;;;;7325253;19;9166;-60
2024/01/21 07:01:53;;;;;;;;;;;17.20;48.20;;;;;;7326067;19;9169;-60
2024/01/21 07:04:22;;;;;;;;;;;17.30;48.20;;;;;;7323953;19;10000;-60
2024/01/21 07:06:52;;;;;;;;;;;17.30;48.10;;;;;;7326146;19;9032;-60
2024/01/21 07:09:22;;;;;;;;;;;17.30;48.20;;;;;;7323871;19;9288;-60
2024/01/21 07:11:53;;;;;;;;;;;17.30;48.20;;;;;;7325708;19;9218;-60
2024/01/21 07:14:22;;;;;;;;;;;17.40;48.10;;;;;;7324598;19;9304;-60
2024/01/21 07:16:51;;;;;;;;;;;17.50;48.00;;;;;;7325968;19;9244;-60
2024/01/21 07:19:20;;;;;;;;;;;17.50;48.70;;;;;;7324765;19;9236;-61
2024/01/21 07:21:49;;;;;;;;;;;17.50;47.90;;;;;;7325103;19;9225;-60
2024/01/21 07:24:18;;;;;;;;;;;17.60;48.00;;;;;;7324283;19;9230;-61
2024/01/21 07:26:48;;;;;;;;;;;17.60;47.80;;;;;;7324467;19;9265;-60
2024/01/21 07:29:19;;;;;;;;;;;17.70;48.00;;;;;;7323986;19;9258;-60
2024/01/21 07:31:48;;;;;;;;;;;17.70;47.90;;;;;;7323091;19;9285;-60
2024/01/21 07:34:17;;;;;;;;;;;17.70;47.80;;;;;;7323888;19;9280;-60
2024/01/21 07:36:46;;;;;;;;;;;17.70;47.80;;;;;;7322417;19;9253;-59
2024/01/21 07:39:15;;;;;;;;;;;17.70;47.80;;;;;;7323299;19;9207;-60
2024/01/21 07:41:44;;;;;;;;;;;17.80;47.50;;;;;;7323529;19;9348;-60
2024/01/21 07:44:14;;;;;;;;;;;17.70;47.60;;;;;;7324150;19;8945;-60
2024/01/21 07:46:46;;;;;;;;;;;17.70;47.20;;;;;;7321743;19;9340;-60
2024/01/21 07:49:15;;;;;;;;;;;17.70;48.00;;;;;;7323144;19;9248;-60
2024/01/21 07:51:45;;;;;;;;;;;17.70;47.30;;;;;;7323782;19;9243;-60
2024/01/21 07:54:14;;;;;;;;;;;17.60;46.90;;;;;;7323429;19;9169;-60
2024/01/21 07:56:44;;;;;;;;;;;17.70;46.70;;;;;;7322699;19;9294;-60
2024/01/21 07:59:14;;;;;;;;;;;17.60;46.60;;;;;;7323096;19;9273;-60
2024/01/21 08:01:47;;;;;;;;;;;17.60;46.60;;;;;;7323782;19;9194;-60
2024/01/21 08:04:16;;;;;;;;;;;17.50;46.40;;;;;;7323019;19;9216;-60
2024/01/21 08:06:46;;;;;;;;;;;17.50;46.50;;;;;;7323250;19;10069;-60
2024/01/21 08:09:16;;;;;;;;;;;17.40;46.40;;;;;;7322159;19;9190;-60
2024/01/21 08:11:46;;;;;;;;;;;17.40;46.60;;;;;;7323206;19;9023;-60
2024/01/21 08:14:16;;;;;;;;;;;17.30;46.50;;;;;;7320789;19;8948;-60
2024/01/21 08:16:48;;;;;;;;;;;17.30;46.50;;;;;;7323270;19;9169;-60
2024/01/21 08:19:20;;;;;;;;;;;17.20;46.60;;;;;;7321496;19;9253;-60
2024/01/21 08:21:50;;;;;;;;;;;17.20;46.90;;;;;;7322438;19;9150;-60
2024/01/21 08:24:20;;;;;;;;;;;17.10;46.70;;;;;;7322243;19;9118;-60
2024/01/21 08:26:49;;;;;;;;;;;17.10;46.90;;;;;;7322652;19;9965;-60
2024/01/21 08:29:19;;;;;;;;;;;17.10;47.30;;;;;;7322637;19;9216;-60
2024/01/21 08:31:51;;;;;;;;;;;17.00;46.80;;;;;;7321759;19;9235;-60
2024/01/21 08:34:21;;;;;;;;;;;17.00;46.80;;;;;;7321799;19;9237;-60
2024/01/21 08:36:51;;;;;;;;;;;17.00;46.70;;;;;;7321450;19;9212;-60
2024/01/21 08:39:21;;;;;;;;;;;17.00;46.80;;;;;;7321704;19;9756;-60
2024/01/21 08:41:51;;;;;;;;;;;17.00;46.70;;;;;;7321777;19;9327;-60
2024/01/21 08:44:21;;;;;;;;;;;17.00;46.70;;;;;;7321436;19;9777;-60
2024/01/21 08:46:54;;;;;;;;;;;17.00;46.80;;;;;;7320675;19;9150;-60
2024/01/21 08:49:26;;;;;;;;;;;17.00;47.00;;;;;;7321299;19;9254;-60
2024/01/21 08:51:55;;;;;;;;;;;17.10;47.20;;;;;;7319863;19;9229;-60
2024/01/21 08:54:24;;;;;;;;;;;17.10;47.10;;;;;;7321541;19;9217;-60
2024/01/21 08:56:54;;;;;;;;;;;17.20;46.60;;;;;;7321585;19;9060;-59
2024/01/21 08:59:23;;;;;;;;;;;17.20;47.00;;;;;;7328739;19;9245;-59
2024/01/21 09:01:54;;;;;;;;;;;17.20;47.30;;;;;;7328252;19;10539;-59
2024/01/21 09:04:23;;;;;;;;;;;17.20;47.10;;;;;;7326733;19;9199;-59
2024/01/21 09:06:52;;;;;;;;;;;17.30;47.20;;;;;;7328485;19;9269;-59
2024/01/21 09:09:22;;;;;;;;;;;17.30;47.30;;;;;;7327616;19;9071;-60
2024/01/21 09:11:51;;;;;;;;;;;17.40;47.10;;;;;;7328264;19;9297;-60
2024/01/21 09:14:20;;;;;;;;;;;17.40;47.20;;;;;;7327037;19;9182;-59
2024/01/21 09:16:50;;;;;;;;;;;17.50;47.20;;;;;;7327722;19;9221;-60
2024/01/21 09:19:22;;;;;;;;;;;17.50;47.10;;;;;;7326495;19;9984;-60
2024/01/21 09:21:51;;;;;;;;;;;17.60;47.20;;;;;;7327562;19;10057;-60
2024/01/21 09:24:21;;;;;;;;;;;17.60;47.10;;;;;;7327467;19;9273;-60
2024/01/21 09:26:50;;;;;;;;;;;17.60;47.10;;;;;;7327010;19;9063;-59
2024/01/21 09:29:19;;;;;;;;;;;17.70;47.10;;;;;;7327981;19;9229;-59
2024/01/21 09:31:55;;;;;;;;;;;17.80;47.00;;;;;;7326816;19;9234;-59
2024/01/21 09:34:27;;;;;;;;;;;17.80;47.10;;;;;;7327207;19;9209;-59
2024/01/21 09:36:56;;;;;;;;;;;17.80;47.10;;;;;;7327100;19;9290;-59
2024/01/21 09:39:25;;;;;;;;;;;17.80;46.90;;;;;;7327158;19;9162;-59
2024/01/21 09:41:55;;;;;;;;;;;17.80;46.90;;;;;;7326575;19;9262;-59
2024/01/21 09:44:30;;;;;;;;;;;17.70;46.90;;;;;;7327877;19;9390;-59
2024/01/21 09:47:01;;;;;;;;;;;17.70;46.70;;;;;;7325714;19;9261;-60
2024/01/21 09:49:34;;;;;;;;;;;17.80;46.60;;;;;;7326703;19;9205;-59
2024/01/21 09:52:06;;;;;;;;;;;17.70;46.70;;;;;;7327133;19;9222;-59
2024/01/21 09:54:36;;;;;;;;;;;17.70;46.40;;;;;;7326601;19;9407;-59
2024/01/21 09:57:07;;;;;;;;;;;17.70;46.70;;;;;;7326662;19;9162;-59
2024/01/21 09:59:37;;;;;;;;;;;17.70;46.30;;;;;;7325124;19;9234;-59
2024/01/21 10:02:07;;;;;;;;;;;17.60;46.10;;;;;;7326350;19;9134;-59
2024/01/21 10:04:39;;;;;;;;;;;17.60;46.10;;;;;;7325107;19;9980;-59
2024/01/21 10:07:10;;;;;;;;;;;17.60;46.10;;;;;;7326662;19;9285;-59
2024/01/21 10:09:41;;;;;;;;;;;17.50;46.20;;;;;;7324582;19;9230;-59
2024/01/21 10:12:12;;;;;;;;;;;17.50;46.30;;;;;;7327523;19;9224;-60
2024/01/21 10:14:41;;;;;;;;;;;17.40;46.30;;;;;;7326036;19;9424;-59
2024/01/21 10:17:11;;;;;;;;;;;17.30;46.30;;;;;;7325214;19;9237;-59
2024/01/21 10:19:46;;;;;;;;;;;17.30;46.30;;;;;;7325852;19;9252;-59
2024/01/21 10:22:18;;;;;;;;;;;17.20;46.30;;;;;;7325672;19;9017;-59
2024/01/21 10:24:49;;;;;;;;;;;17.20;46.40;;;;;;7326833;19;9023;-59
2024/01/21 10:27:19;;;;;;;;;;;17.20;46.50;;;;;;7325320;19;9328;-59
2024/01/21 10:29:49;;;;;;;;;;;17.10;47.20;;;;;;7326720;19;9256;-60
2024/01/21 10:32:20;;;;;;;;;;;17.10;47.10;;;;;;7325612;19;9210;-61
2024/01/21 10:34:54;;;;;;;;;;;17.00;46.90;;;;;;7325790;19;9015;-60
2024/01/21 10:37:23;;;;;;;;;;;17.00;46.90;;;;;;7323539;19;9707;-60
2024/01/21 10:39:57;;;;;;;;;;;17.00;46.90;;;;;;7325075;19;9797;-60
2024/01/21 10:42:27;;;;;;;;;;;17.00;46.80;;;;;;7326665;19;9174;-60
2024/01/21 10:44:59;;;;;;;;;;;17.00;46.80;;;;;;7324600;19;9110;-59
2024/01/21 10:47:29;;;;;;;;;;;17.00;46.70;;;;;;7324661;19;9226;-60
2024/01/21 10:50:02;;;;;;;;;;;17.00;46.70;;;;;;7323275;19;9218;-60
2024/01/21 10:52:34;;;;;;;;;;;17.00;46.70;;;;;;7325610;19;9108;-60
2024/01/21 10:55:03;;;;;;;;;;;17.00;47.00;;;;;;7324848;19;9182;-60
2024/01/21 10:57:32;;;;;;;;;;;17.10;46.80;;;;;;7325194;19;9263;-60
2024/01/21 11:00:01;;;;;;;;;;;17.10;47.10;;;;;;7323420;19;9023;-60
2024/01/21 11:02:30;;;;;;;;;;;17.20;47.30;;;;;;7324914;19;9198;-59
2024/01/21 11:05:02;;;;;;;;;;;17.20;47.20;;;;;;7325056;19;9239;-60
2024/01/21 11:07:33;;;;;;;;;;;17.30;47.20;;;;;;7324677;19;9181;-60
2024/01/21 11:10:05;;;;;;;;;;;17.30;47.20;;;;;;7324737;19;9963;-60
2024/01/21 11:12:34;;;;;;;;;;;17.30;47.10;;;;;;7322839;19;9170;-60
2024/01/21 11:15:30;;;;;;;;;;;17.40;47.30;;;;;;7324486;19;9218;-60
2024/01/21 11:18:11;;;;;;;;;;;17.50;47.00;;;;;;7324982;19;10019;-60
2024/01/21 11:20:59;;;;;;;;;;;17.50;47.10;;;;;;7321840;19;9278;-60
2024/01/21 11:23:29;;;;;;;;;;;17.50;47.10;;;;;;7324570;19;9240;-60
2024/01/21 11:25:58;;;;;;;;;;;17.50;47.10;;;;;;7324305;19;9229;-60
2024/01/21 11:28:29;;;;;;;;;;;17.60;47.10;;;;;;7323990;19;9936;-60
2024/01/21 11:31:08;;;;;;;;;;;17.70;47.10;;;;;;7324114;19;9377;-60
2024/01/21 11:33:38;;;;;;;;;;;17.70;47.00;;;;;;7323997;19;9182;-60
2024/01/21 11:36:11;;;;;;;;;;;17.70;47.10;;;;;;7324398;19;9296;-60
2024/01/21 11:38:43;;;;;;;;;;;17.70;47.00;;;;;;7322535;19;9225;-60
2024/01/21 11:41:14;;;;;;;;;;;17.70;47.10;;;;;;7324200;19;9020;-60
2024/01/21 11:43:43;;;;;;;;;;;17.70;46.90;;;;;;7322631;19;9284;-60
2024/01/21 11:46:13;;;;;;;;;;;17.70;46.90;;;;;;7323250;19;9341;-60
2024/01/21 11:48:42;;;;;;;;;;;17.70;46.70;;;;;;7322527;19;9256;-60
2024/01/21 11:51:17;;;;;;;;;;;17.70;46.70;;;;;;7324282;19;9226;-60
2024/01/21 11:53:47;;;;;;;;;;;17.70;46.70;;;;;;7323974;19;9201;-60
2024/01/21 11:56:17;;;;;;;;;;;17.70;46.40;;;;;;7323762;19;12849;-60
2024/01/21 11:58:47;;;;;;;;;;;17.70;46.30;;;;;;7323564;19;9214;-60
2024/01/21 12:01:17;;;;;;;;;;;17.60;46.40;;;;;;7321960;19;9374;-60
2024/01/21 12:03:50;;;;;;;;;;;17.60;46.20;;;;;;7323207;19;9253;-60
2024/01/21 12:06:24;;;;;;;;;;;17.50;46.10;;;;;;7322852;19;9237;-60
2024/01/21 12:08:54;;;;;;;;;;;17.60;46.30;;;;;;7323373;19;9201;-60
2024/01/21 12:11:24;;;;;;;;;;;17.50;46.30;;;;;;7321921;19;9270;-60
2024/01/21 12:13:55;;;;;;;;;;;17.40;46.20;;;;;;7322742;19;9245;-60
2024/01/21 12:16:25;;;;;;;;;;;17.40;46.30;;;;;;7322927;19;9161;-60
2024/01/21 12:18:55;;;;;;;;;;;17.40;46.40;;;;;;7321930;19;9205;-60
2024/01/21 12:21:30;;;;;;;;;;;17.30;46.50;;;;;;7322533;19;10987;-60
2024/01/21 12:24:02;;;;;;;;;;;17.30;46.60;;;;;;7322090;19;9257;-60
2024/01/21 12:26:32;;;;;;;;;;;17.20;46.60;;;;;;7322430;19;9253;-60
2024/01/21 12:29:04;;;;;;;;;;;17.20;46.60;;;;;;7321752;19;9247;-59
2024/01/21 12:31:35;;;;;;;;;;;17.10;46.80;;;;;;7323918;19;9272;-60
2024/01/21 12:34:07;;;;;;;;;;;17.10;47.70;;;;;;7329481;19;9250;-60
2024/01/21 12:36:44;;;;;;;;;;;17.10;47.20;;;;;;7327763;19;9246;-60
2024/01/21 12:39:16;;;;;;;;;;;17.00;47.00;;;;;;7328678;19;9155;-60
2024/01/21 12:41:46;;;;;;;;;;;17.00;47.10;;;;;;7327468;19;9186;-60
2024/01/21 12:44:15;;;;;;;;;;;17.00;47.00;;;;;;7328970;19;9270;-60
2024/01/21 12:46:47;;;;;;;;;;;16.90;47.10;;;;;;7326604;19;9256;-60
2024/01/21 12:49:17;;;;;;;;;;;16.90;47.10;;;;;;7329239;19;9027;-59
2024/01/21 12:51:50;;;;;;;;;;;16.90;47.00;;;;;;7327811;19;9227;-59
2024/01/21 12:54:20;;;;;;;;;;;17.00;47.10;;;;;;7327987;19;9971;-58
2024/01/21 12:56:49;;;;;;;;;;;17.00;47.20;;;;;;7328259;19;9390;-59
2024/01/21 12:59:19;;;;;;;;;;;17.00;47.00;;;;;;7328297;19;9250;-59
2024/01/21 13:01:49;;;;;;;;;;;17.10;47.40;;;;;;7329437;19;9260;-59
2024/01/21 13:04:19;;;;;;;;;;;17.10;47.80;;;;;;7327589;19;9944;-59
2024/01/21 13:06:52;;;;;;;;;;;17.20;47.70;;;;;;7328588;19;9023;-60
2024/01/21 13:09:22;;;;;;;;;;;17.20;47.50;;;;;;7326658;19;9288;-60
2024/01/21 13:11:52;;;;;;;;;;;17.20;47.40;;;;;;7327923;19;9238;-60
2024/01/21 13:14:21;;;;;;;;;;;17.30;47.60;;;;;;7327328;19;9187;-60
2024/01/21 13:16:51;;;;;;;;;;;17.30;47.50;;;;;;7327171;19;9186;-60
2024/01/21 13:19:21;;;;;;;;;;;17.40;47.40;;;;;;7326875;19;9393;-61
2024/01/21 13:21:53;;;;;;;;;;;17.50;47.50;;;;;;7328008;19;9114;-60
2024/01/21 13:24:23;;;;;;;;;;;17.50;47.40;;;;;;7326551;19;9250;-60
2024/01/21 13:26:57;;;;;;;;;;;17.60;47.30;;;;;;7327701;19;9206;-60
2024/01/21 13:32:09;;;;;;;;;;;17.70;47.20;;;;;;7327477;19;9182;-60
2024/01/21 13:34:39;;;;;;;;;;;17.70;47.20;;;;;;7326687;19;9182;-60
2024/01/21 13:37:12;;;;;;;;;;;17.80;47.30;;;;;;7326854;19;11494;-60
2024/01/21 13:39:43;;;;;;;;;;;17.70;47.20;;;;;;7327300;19;9388;-60
2024/01/21 13:42:13;;;;;;;;;;;17.80;47.30;;;;;;7327238;19;9138;-60
2024/01/21 13:44:45;;;;;;;;;;;17.80;47.30;;;;;;7325390;19;9019;-60
2024/01/21 13:47:14;;;;;;;;;;;17.70;47.10;;;;;;7326743;19;9280;-60
2024/01/21 13:49:44;;;;;;;;;;;17.80;47.10;;;;;;7326032;19;9198;-60
2024/01/21 13:52:17;;;;;;;;;;;17.70;47.10;;;;;;7327308;19;9165;-60
2024/01/21 13:54:47;;;;;;;;;;;17.80;47.10;;;;;;7325902;19;10054;-60
2024/01/21 13:57:17;;;;;;;;;;;17.70;46.80;;;;;;7327618;19;9237;-59
2024/01/21 13:59:47;;;;;;;;;;;17.70;47.10;;;;;;7326227;19;9028;-60
2024/01/21 14:02:17;;;;;;;;;;;17.60;46.90;;;;;;7326656;19;9023;-60
2024/01/21 14:04:47;;;;;;;;;;;17.60;46.70;;;;;;7326132;19;9016;-60
2024/01/21 14:07:19;;;;;;;;;;;17.60;46.80;;;;;;7326635;19;9225;-60
2024/01/21 14:09:49;;;;;;;;;;;17.60;46.80;;;;;;7325763;19;9976;-60
2024/01/21 14:12:20;;;;;;;;;;;17.50;46.90;;;;;;7326671;19;9205;-60
2024/01/21 14:14:49;;;;;;;;;;;17.50;46.90;;;;;;7326527;19;9214;-60
2024/01/21 14:17:22;;;;;;;;;;;17.40;47.00;;;;;;7325472;19;8956;-59
2024/01/21 14:19:52;;;;;;;;;;;17.40;47.10;;;;;;7324287;19;9312;-60
2024/01/21 14:22:25;;;;;;;;;;;17.30;47.10;;;;;;7325271;19;9972;-60
2024/01/21 14:25:01;;;;;;;;;;;17.20;47.90;;;;;;7325958;19;9114;-60
2024/01/21 14:27:31;;;;;;;;;;;17.20;47.40;;;;;;7325678;19;8944;-60
2024/01/21 14:30:05;;;;;;;;;;;17.10;47.30;;;;;;7326116;19;10014;-60
2024/01/21 14:32:35;;;;;;;;;;;17.10;47.70;;;;;;7326534;19;9123;-60
2024/01/21 14:35:05;;;;;;;;;;;17.10;47.60;;;;;;7324069;19;9514;-60
2024/01/21 14:37:37;;;;;;;;;;;17.00;47.70;;;;;;7324873;19;10057;-60
2024/01/21 14:40:09;;;;;;;;;;;17.00;47.70;;;;;;7324488;19;9396;-60
2024/01/21 14:42:38;;;;;;;;;;;17.00;47.80;;;;;;7325745;19;9288;-60
2024/01/21 14:45:08;;;;;;;;;;;17.00;47.80;;;;;;7325157;19;9254;-60
2024/01/21 14:47:37;;;;;;;;;;;17.00;47.80;;;;;;7325689;19;9143;-61
2024/01/21 14:50:08;;;;;;;;;;;16.90;47.80;;;;;;7325208;19;9232;-59